Time;durP1;ratioP1;P1;durP2;ratioP2;P2;SDS_P1;SDS_P2;PMS_P1;PMS_P2;Temp;Humidity;BMP_temperature;BMP_pressure;BME280_temperature;BME280_humidity;BME280_pressure;Samples;Min_cycle;Max_cycle;Signal;HPM_P1;HPM_P2
2023/06/25 00:00:14;;;;;;;12.13;11.03;;;14.90;99.90;;;;;;5074365;28;20243;-73
2023/06/25 00:02:40;;;;;;;11.97;10.37;;;15.00;99.90;;;;;;5074095;28;20201;-73
2023/06/25 00:05:08;;;;;;;10.80;9.70;;;14.90;99.90;;;;;;5073395;28;20658;-74
2023/06/25 00:07:35;;;;;;;10.83;9.73;;;14.80;99.90;;;;;;5073068;28;20259;-74
2023/06/25 00:10:02;;;;;;;10.17;9.17;;;14.70;99.90;;;;;;5074073;28;20208;-73
2023/06/25 00:12:29;;;;;;;12.47;9.10;;;14.70;99.90;;;;;;5073980;28;20207;-74
2023/06/25 00:14:56;;;;;;;9.60;8.50;;;14.60;99.90;;;;;;5073896;28;20263;-74
2023/06/25 00:17:27;;;;;;;11.63;8.83;;;14.60;99.90;;;;;;5073719;28;20197;-74
2023/06/25 00:19:54;;;;;;;10.87;8.60;;;14.50;99.90;;;;;;5073971;28;20200;-74
2023/06/25 00:22:20;;;;;;;9.23;8.00;;;14.50;99.90;;;;;;5073884;28;20259;-74
2023/06/25 00:24:47;;;;;;;10.13;8.40;;;14.40;99.90;;;;;;5074032;28;20275;-74
2023/06/25 00:27:13;;;;;;;9.53;8.50;;;14.30;99.90;;;;;;5073799;28;20268;-74
2023/06/25 00:29:40;;;;;;;8.87;7.80;;;14.30;99.90;;;;;;5073747;28;20229;-74
2023/06/25 00:32:08;;;;;;;8.83;7.80;;;14.20;99.90;;;;;;5073619;28;20196;-74
2023/06/25 00:34:40;;;;;;;8.97;8.07;;;14.10;99.90;;;;;;5073970;28;20192;-74
2023/06/25 00:37:16;;;;;;;12.10;8.47;;;14.10;99.90;;;;;;5073645;28;20204;-73
2023/06/25 00:39:43;;;;;;;9.73;8.73;;;14.00;99.90;;;;;;5073559;28;20208;-74
2023/06/25 00:42:10;;;;;;;9.37;8.40;;;14.00;99.90;;;;;;5073341;28;20204;-73
2023/06/25 00:44:40;;;;;;;9.13;8.00;;;14.00;99.90;;;;;;5073287;28;20197;-73
2023/06/25 00:47:08;;;;;;;10.13;8.80;;;14.00;99.90;;;;;;5073357;28;20656;-74
2023/06/25 00:49:36;;;;;;;10.47;8.63;;;13.90;99.90;;;;;;5073263;28;20318;-74
2023/06/25 00:52:08;;;;;;;9.43;8.40;;;13.90;99.90;;;;;;5073312;28;20197;-74
2023/06/25 00:54:37;;;;;;;10.27;8.33;;;13.90;99.90;;;;;;5073050;28;20285;-74
2023/06/25 00:57:05;;;;;;;9.00;8.07;;;13.80;99.90;;;;;;5073090;28;20247;-73
2023/06/25 00:59:32;;;;;;;10.60;7.87;;;13.80;99.90;;;;;;5073399;28;20303;-74
2023/06/25 01:02:07;;;;;;;10.03;8.20;;;13.80;99.90;;;;;;5073358;28;20201;-74
2023/06/25 01:04:43;;;;;;;9.60;8.53;;;13.90;99.90;;;;;;5073184;28;20196;-74
2023/06/25 01:07:16;;;;;;;9.97;8.30;;;14.20;99.90;;;;;;5073072;28;20193;-74
2023/06/25 01:09:48;;;;;;;11.77;9.30;;;14.30;99.90;;;;;;5072812;28;20305;-74
2023/06/25 01:12:15;;;;;;;8.80;7.93;;;14.30;99.90;;;;;;5073053;28;20197;-74
2023/06/25 01:14:42;;;;;;;8.77;7.90;;;14.20;99.90;;;;;;5074047;28;20293;-74
2023/06/25 01:17:09;;;;;;;9.83;8.77;;;14.00;99.90;;;;;;5072921;28;20197;-73
2023/06/25 01:19:36;;;;;;;10.70;8.67;;;14.00;99.90;;;;;;5072928;28;20200;-74
2023/06/25 01:22:05;;;;;;;9.70;8.73;;;13.90;99.90;;;;;;5072852;28;20726;-73
2023/06/25 01:24:35;;;;;;;9.50;8.40;;;14.00;99.90;;;;;;5073339;28;20252;-74
2023/06/25 01:27:04;;;;;;;10.50;8.43;;;14.00;99.90;;;;;;5073235;28;20192;-74
2023/06/25 01:29:32;;;;;;;10.57;8.77;;;13.90;99.90;;;;;;5072729;28;20244;-74
2023/06/25 01:31:59;;;;;;;9.40;8.50;;;13.90;99.90;;;;;;5072576;28;20227;-74
2023/06/25 01:34:26;;;;;;;10.37;8.37;;;13.80;99.90;;;;;;5072761;28;20611;-74
2023/06/25 01:36:53;;;;;;;9.73;8.73;;;13.70;99.90;;;;;;5072874;28;20243;-74
2023/06/25 01:39:20;;;;;;;9.60;8.60;;;13.80;99.90;;;;;;5072769;28;20320;-74
2023/06/25 01:41:49;;;;;;;10.23;9.00;;;13.90;99.90;;;;;;5072580;28;20258;-74
2023/06/25 01:44:19;;;;;;;8.83;8.03;;;13.90;99.90;;;;;;5072650;28;20197;-74
2023/06/25 01:46:46;;;;;;;11.40;9.10;;;14.00;99.90;;;;;;5072674;28;20205;-74
2023/06/25 01:49:12;;;;;;;11.47;10.27;;;13.90;99.90;;;;;;5072302;28;20224;-74
2023/06/25 01:51:39;;;;;;;12.33;10.37;;;13.90;99.90;;;;;;5072375;28;20726;-74
2023/06/25 01:54:06;;;;;;;13.20;11.13;;;13.90;99.90;;;;;;5072549;28;20229;-74
2023/06/25 01:56:32;;;;;;;14.03;12.10;;;13.90;99.90;;;;;;5072675;28;20197;-74
2023/06/25 01:59:00;;;;;;;13.57;11.13;;;13.80;99.90;;;;;;5072585;28;20266;-74
2023/06/25 02:01:27;;;;;;;12.87;11.23;;;13.70;99.90;;;;;;5072372;28;20196;-73
2023/06/25 02:03:54;;;;;;;13.43;11.60;;;13.50;99.90;;;;;;5072272;28;20193;-74
2023/06/25 02:06:20;;;;;;;14.07;12.33;;;13.40;99.90;;;;;;5072475;28;20201;-73
2023/06/25 02:08:47;;;;;;;11.93;10.73;;;13.40;99.90;;;;;;5072412;28;20220;-73
2023/06/25 02:11:14;;;;;;;11.07;9.83;;;13.40;99.90;;;;;;5072373;28;20274;-73
2023/06/25 02:13:40;;;;;;;11.17;10.07;;;13.30;99.90;;;;;;5072254;28;20228;-74
2023/06/25 02:16:08;;;;;;;10.67;9.57;;;13.20;99.90;;;;;;5072195;28;20193;-73
2023/06/25 02:18:36;;;;;;;12.10;10.17;;;13.10;99.90;;;;;;5072288;28;20197;-73
2023/06/25 02:21:03;;;;;;;12.33;9.83;;;13.10;99.90;;;;;;5072343;28;20201;-74
2023/06/25 02:23:29;;;;;;;10.70;9.63;;;13.10;99.90;;;;;;5072429;28;20197;-73
2023/06/25 02:25:56;;;;;;;11.23;9.27;;;13.00;99.90;;;;;;5072246;28;20197;-73
2023/06/25 02:28:23;;;;;;;11.03;9.93;;;13.00;99.90;;;;;;5072040;28;20648;-73
2023/06/25 02:30:49;;;;;;;12.57;9.90;;;12.90;99.90;;;;;;5075714;28;20653;-73
2023/06/25 02:33:17;;;;;;;11.07;9.70;;;12.80;99.90;;;;;;5075816;28;20204;-73
2023/06/25 02:35:44;;;;;;;12.07;9.77;;;12.80;99.90;;;;;;5076040;28;20197;-73
2023/06/25 02:38:11;;;;;;;10.67;9.57;;;12.70;99.90;;;;;;5075823;28;20201;-73
2023/06/25 02:40:37;;;;;;;10.53;9.43;;;12.70;99.90;;;;;;5075873;28;20201;-73
2023/06/25 02:43:04;;;;;;;10.43;8.90;;;12.70;99.90;;;;;;5075815;28;20718;-73
2023/06/25 02:45:30;;;;;;;9.60;8.70;;;12.70;99.90;;;;;;5075594;28;20645;-73
2023/06/25 02:47:57;;;;;;;10.73;9.57;;;12.60;99.90;;;;;;5075860;28;20201;-74
2023/06/25 02:50:25;;;;;;;13.80;9.30;;;12.60;99.90;;;;;;5075529;28;20225;-73
2023/06/25 02:52:52;;;;;;;9.90;8.70;;;12.50;99.90;;;;;;5075492;28;20236;-73
2023/06/25 02:55:19;;;;;;;11.47;9.53;;;12.40;99.90;;;;;;5075468;28;20271;-73
2023/06/25 02:57:45;;;;;;;10.60;9.47;;;12.30;99.90;;;;;;5075463;28;20197;-73
2023/06/25 03:00:13;;;;;;;9.40;8.50;;;12.30;99.90;;;;;;5075369;28;20278;-73
2023/06/25 03:02:39;;;;;;;10.47;8.97;;;12.20;99.90;;;;;;5075521;28;20200;-73
2023/06/25 03:05:07;;;;;;;10.40;9.30;;;12.20;99.90;;;;;;5075312;28;20823;-73
2023/06/25 03:07:35;;;;;;;11.90;9.47;;;12.10;99.90;;;;;;5075355;28;20208;-74
2023/06/25 03:10:01;;;;;;;11.00;9.90;;;12.10;99.90;;;;;;5075328;28;20692;-73
2023/06/25 03:12:28;;;;;;;10.77;9.17;;;12.20;99.90;;;;;;5075169;28;20220;-73
2023/06/25 03:14:54;;;;;;;10.07;8.87;;;12.20;99.90;;;;;;5076064;28;20200;-73
2023/06/25 03:17:21;;;;;;;11.77;9.77;;;12.10;99.90;;;;;;5077720;28;20201;-74
2023/06/25 03:19:48;;;;;;;10.27;9.27;;;12.10;99.90;;;;;;5077432;28;20207;-73
2023/06/25 03:22:14;;;;;;;12.50;8.97;;;12.10;99.90;;;;;;5077204;28;20201;-73
2023/06/25 03:24:42;;;;;;;11.07;9.67;;;12.30;99.90;;;;;;5077777;28;20706;-73
2023/06/25 03:27:09;;;;;;;11.17;9.93;;;12.30;99.90;;;;;;5075645;28;20227;-73
2023/06/25 03:29:36;;;;;;;12.80;9.37;;;12.30;99.90;;;;;;5074781;28;20640;-73
2023/06/25 03:32:02;;;;;;;10.50;9.47;;;12.20;99.90;;;;;;5075007;28;20255;-73
2023/06/25 03:34:29;;;;;;;13.23;9.70;;;12.30;99.90;;;;;;5074908;28;20197;-73
2023/06/25 03:36:56;;;;;;;10.20;9.13;;;12.30;99.90;;;;;;5074844;28;20258;-73
2023/06/25 03:39:23;;;;;;;10.90;9.70;;;12.40;99.90;;;;;;5074762;28;20204;-73
2023/06/25 03:41:51;;;;;;;12.90;10.33;;;12.30;99.90;;;;;;5074494;28;20200;-73
2023/06/25 03:44:17;;;;;;;11.63;9.73;;;12.40;99.90;;;;;;5074743;28;20259;-74
2023/06/25 03:46:44;;;;;;;11.03;9.67;;;12.30;99.90;;;;;;5074545;28;20714;-73
2023/06/25 03:49:10;;;;;;;11.03;10.00;;;12.40;99.90;;;;;;5074534;28;20221;-73
2023/06/25 03:51:37;;;;;;;12.00;10.20;;;12.40;99.90;;;;;;5074388;28;20201;-73
2023/06/25 03:54:04;;;;;;;12.03;10.40;;;12.40;99.90;;;;;;5074227;28;20232;-74
2023/06/25 03:56:30;;;;;;;10.40;9.40;;;12.40;99.90;;;;;;5074115;28;20718;-73
2023/06/25 03:58:58;;;;;;;10.57;9.47;;;12.40;99.90;;;;;;5074442;28;20201;-73
2023/06/25 04:01:25;;;;;;;12.90;9.70;;;12.40;99.90;;;;;;5074353;28;20197;-73
2023/06/25 04:03:51;;;;;;;12.90;10.03;;;12.60;99.90;;;;;;5074291;28;20254;-73
2023/06/25 04:06:18;;;;;;;10.83;9.47;;;12.80;99.90;;;;;;5074137;28;20197;-74
2023/06/25 04:08:44;;;;;;;10.53;9.53;;;13.00;99.90;;;;;;5074041;28;20242;-73
2023/06/25 04:11:11;;;;;;;10.20;9.20;;;13.00;99.90;;;;;;5074189;28;20254;-73
2023/06/25 04:13:38;;;;;;;10.60;9.50;;;13.10;99.90;;;;;;5073934;28;20715;-73
2023/06/25 04:16:07;;;;;;;11.27;9.73;;;13.10;99.90;;;;;;5074056;28;20197;-74
2023/06/25 04:18:33;;;;;;;10.60;9.50;;;13.10;99.90;;;;;;5074017;28;20197;-73
2023/06/25 04:21:00;;;;;;;11.03;9.73;;;13.20;99.90;;;;;;5073856;28;20208;-74
2023/06/25 04:23:27;;;;;;;11.53;9.57;;;13.30;99.90;;;;;;5073676;28;20243;-73
2023/06/25 04:25:53;;;;;;;10.93;9.73;;;13.30;99.90;;;;;;5073987;28;20193;-73
2023/06/25 04:28:20;;;;;;;12.07;9.73;;;13.40;99.90;;;;;;5073958;28;20599;-72
2023/06/25 04:30:46;;;;;;;11.13;10.03;;;13.60;99.90;;;;;;5073648;28;20737;-73
2023/06/25 04:33:14;;;;;;;10.83;9.60;;;13.70;99.90;;;;;;5073774;28;20239;-73
2023/06/25 04:35:41;;;;;;;11.00;9.83;;;13.80;99.90;;;;;;5073531;28;20258;-72
2023/06/25 04:38:07;;;;;;;10.50;9.47;;;13.80;99.90;;;;;;5073455;28;20197;-74
2023/06/25 04:40:34;;;;;;;10.50;9.37;;;13.90;99.90;;;;;;5073662;28;20201;-74
2023/06/25 04:43:01;;;;;;;11.17;10.07;;;14.00;99.90;;;;;;5073412;28;20200;-74
2023/06/25 04:45:27;;;;;;;11.30;9.37;;;14.10;99.90;;;;;;5073463;28;20201;-74
2023/06/25 04:47:54;;;;;;;9.73;8.70;;;14.20;99.90;;;;;;5073376;28;20259;-73
2023/06/25 04:50:22;;;;;;;14.43;9.80;;;14.20;99.90;;;;;;5073056;28;20217;-73
2023/06/25 04:52:49;;;;;;;11.00;9.80;;;14.30;99.90;;;;;;5072993;28;20209;-73
2023/06/25 04:55:15;;;;;;;11.63;10.50;;;14.40;99.90;;;;;;5072968;28;20616;-73
2023/06/25 04:57:42;;;;;;;11.37;10.27;;;14.60;99.90;;;;;;5073217;28;20201;-73
2023/06/25 05:00:10;;;;;;;11.33;9.60;;;14.70;99.90;;;;;;5073042;28;20197;-73
2023/06/25 05:02:36;;;;;;;9.60;8.60;;;14.80;99.90;;;;;;5073035;28;20596;-74
2023/06/25 05:05:04;;;;;;;10.57;9.47;;;14.90;99.90;;;;;;5072982;28;20196;-73
2023/06/25 05:07:32;;;;;;;11.07;9.37;;;15.10;99.90;;;;;;5073165;28;20201;-74
2023/06/25 05:09:58;;;;;;;9.90;8.90;;;15.10;99.90;;;;;;5072828;28;20710;-74
2023/06/25 05:12:25;;;;;;;11.47;9.97;;;15.30;99.90;;;;;;5072946;28;20197;-74
2023/06/25 05:14:51;;;;;;;11.30;9.37;;;15.40;99.90;;;;;;5072904;28;20196;-74
2023/06/25 05:17:18;;;;;;;10.90;9.80;;;15.50;99.90;;;;;;5072931;28;20603;-74
2023/06/25 05:19:45;;;;;;;9.90;8.90;;;15.70;99.90;;;;;;5072762;28;20201;-74
2023/06/25 05:22:12;;;;;;;11.17;9.27;;;15.70;99.90;;;;;;5073133;28;20197;-75
2023/06/25 05:24:40;;;;;;;11.07;9.97;;;15.90;99.90;;;;;;5073132;28;20201;-74
2023/06/25 05:27:07;;;;;;;9.93;9.02;;;16.00;99.90;;;;;;5072859;28;20227;-74
2023/06/25 05:29:33;;;;;;;9.98;8.98;;;16.10;99.90;;;;;;5072691;28;20225;-75
2023/06/25 05:32:00;;;;;;;11.02;8.63;;;16.30;99.90;;;;;;5072465;28;20652;-74
2023/06/25 05:34:27;;;;;;;9.85;8.80;;;16.40;99.90;;;;;;5072840;28;20879;-74
2023/06/25 05:36:53;;;;;;;9.50;8.50;;;16.50;99.90;;;;;;5072606;28;20205;-75
2023/06/25 05:39:20;;;;;;;10.85;8.95;;;16.60;99.90;;;;;;5072700;28;20243;-74
2023/06/25 05:41:48;;;;;;;9.18;8.30;;;16.80;99.90;;;;;;5072458;28;20226;-75
2023/06/25 05:44:14;;;;;;;10.00;8.63;;;17.00;99.90;;;;;;5072536;28;20197;-75
2023/06/25 05:46:41;;;;;;;9.25;8.35;;;17.20;99.90;;;;;;5072467;28;20254;-75
2023/06/25 05:49:10;;;;;;;9.70;8.80;;;17.40;99.90;;;;;;5072654;28;20196;-75
2023/06/25 05:51:37;;;;;;;10.00;8.95;;;17.50;99.90;;;;;;5072360;28;20661;-75
2023/06/25 05:54:03;;;;;;;8.45;7.65;;;17.70;99.90;;;;;;5072457;28;20223;-75
2023/06/25 05:56:30;;;;;;;9.98;8.75;;;17.80;99.90;;;;;;5072503;28;20204;-75
2023/06/25 05:58:58;;;;;;;9.27;8.43;;;17.90;99.90;;;;;;5072636;28;20656;-75
2023/06/25 06:01:25;;;;;;;9.13;8.00;;;18.10;99.90;;;;;;5072326;28;20201;-75
2023/06/25 06:03:52;;;;;;;11.18;8.88;;;18.20;99.90;;;;;;5072996;28;20197;-75
2023/06/25 06:06:19;;;;;;;9.25;8.25;;;18.30;99.90;;;;;;5076176;28;20197;-75
2023/06/25 06:08:45;;;;;;;9.32;8.43;;;18.50;99.90;;;;;;5076495;28;20208;-75
2023/06/25 06:11:12;;;;;;;8.65;7.70;;;18.60;99.90;;;;;;5076382;28;20630;-75
2023/06/25 06:13:39;;;;;;;8.52;7.55;;;18.80;99.90;;;;;;5076112;28;20193;-74
2023/06/25 06:16:07;;;;;;;8.88;8.05;;;18.90;99.90;;;;;;5076395;28;20250;-75
2023/06/25 06:18:33;;;;;;;8.95;8.05;;;19.00;99.90;;;;;;5076398;28;20201;-76
2023/06/25 06:21:00;;;;;;;10.48;7.30;;;19.10;99.90;;;;;;5076193;28;20197;-74
2023/06/25 06:23:26;;;;;;;8.23;7.45;;;19.20;99.90;;;;;;5076109;28;20247;-74
2023/06/25 06:25:53;;;;;;;8.85;7.47;;;19.30;99.90;;;;;;5075878;28;20668;-75
2023/06/25 06:28:20;;;;;;;8.13;6.88;;;19.50;99.90;;;;;;5075823;28;20251;-75
2023/06/25 06:30:46;;;;;;;10.00;7.25;;;19.60;99.90;;;;;;5075924;28;20237;-75
2023/06/25 06:33:14;;;;;;;7.35;6.55;;;19.50;99.90;;;;;;5075977;28;20557;-74
2023/06/25 06:35:41;;;;;;;8.50;6.93;;;19.70;99.90;;;;;;5075927;28;20632;-74
2023/06/25 06:38:08;;;;;;;6.93;6.28;;;19.80;99.90;;;;;;5075816;28;20197;-74
2023/06/25 06:40:34;;;;;;;7.22;6.50;;;20.00;99.90;;;;;;5075830;28;20595;-74
2023/06/25 06:43:01;;;;;;;7.50;6.72;;;20.10;99.90;;;;;;5075730;28;20197;-75
2023/06/25 06:45:27;;;;;;;7.95;7.13;;;20.10;99.90;;;;;;5075694;28;20659;-75
2023/06/25 06:47:54;;;;;;;7.63;6.32;;;20.20;99.90;;;;;;5075606;28;20197;-73
2023/06/25 06:50:22;;;;;;;7.75;6.32;;;20.30;99.90;;;;;;5075512;28;20217;-74
2023/06/25 06:52:49;;;;;;;7.82;7.13;;;20.40;99.90;;;;;;5075617;28;20611;-73
2023/06/25 06:55:15;;;;;;;7.18;6.53;;;20.50;99.90;;;;;;5075432;28;20266;-73
2023/06/25 06:57:42;;;;;;;7.85;7.05;;;20.60;99.90;;;;;;5074934;28;20258;-74
2023/06/25 07:00:09;;;;;;;9.07;6.95;;;20.70;99.90;;;;;;5075212;28;20251;-74
2023/06/25 07:02:36;;;;;;;7.05;6.35;;;20.60;99.90;;;;;;5075692;28;20197;-74
2023/06/25 07:05:03;;;;;;;7.03;6.40;;;20.80;99.90;;;;;;5075460;28;20254;-74
2023/06/25 07:07:31;;;;;;;7.65;6.85;;;20.90;99.90;;;;;;5075324;28;20193;-74
2023/06/25 07:09:57;;;;;;;8.25;7.13;;;20.90;99.90;;;;;;5074935;28;20274;-74
2023/06/25 07:12:24;;;;;;;7.45;5.95;;;21.00;99.90;;;;;;5075059;28;20587;-74
2023/06/25 07:14:50;;;;;;;8.75;6.68;;;21.30;99.90;;;;;;5074866;28;20197;-74
2023/06/25 07:17:17;;;;;;;7.15;6.35;;;21.30;99.90;;;;;;5075248;28;20201;-74
2023/06/25 07:19:44;;;;;;;7.65;6.63;;;21.30;99.90;;;;;;5075151;28;20197;-74
2023/06/25 07:22:10;;;;;;;7.47;6.72;;;21.40;99.90;;;;;;5075004;28;20205;-74
2023/06/25 07:24:38;;;;;;;7.38;6.65;;;21.50;99.90;;;;;;5074915;28;20193;-74
2023/06/25 07:27:06;;;;;;;7.40;6.03;;;21.60;99.90;;;;;;5075101;28;20246;-76
2023/06/25 07:29:32;;;;;;;6.47;5.88;;;21.70;99.90;;;;;;5075025;28;20226;-73
2023/06/25 07:31:59;;;;;;;6.50;5.85;;;21.70;99.90;;;;;;5074932;28;20294;-73
2023/06/25 07:34:25;;;;;;;6.03;5.40;;;21.80;99.90;;;;;;5074778;28;20273;-73
2023/06/25 07:36:52;;;;;;;6.07;5.47;;;22.00;99.90;;;;;;5074560;28;20197;-73
2023/06/25 07:39:25;;;;;;;6.05;5.55;;;22.00;99.90;;;;;;5074605;28;20280;-77
2023/06/25 07:41:53;;;;;;;6.85;5.57;;;22.10;99.90;;;;;;5074871;28;20219;-75
2023/06/25 07:44:20;;;;;;;6.30;5.70;;;22.20;98.80;;;;;;5074649;28;20192;-77
2023/06/25 07:46:47;;;;;;;5.63;5.13;;;22.20;98.80;;;;;;5074394;28;20554;-80
2023/06/25 07:49:13;;;;;;;5.85;4.90;;;22.40;98.30;;;;;;5074488;28;20205;-76
2023/06/25 07:51:40;;;;;;;5.70;5.10;;;22.60;96.60;;;;;;5074273;28;20745;-80
2023/06/25 07:54:06;;;;;;;5.22;4.80;;;22.70;96.10;;;;;;5074336;28;20201;-75
2023/06/25 07:56:33;;;;;;;5.70;5.03;;;22.90;94.10;;;;;;5074193;28;20661;-74
2023/06/25 07:59:01;;;;;;;6.25;4.20;;;23.10;93.70;;;;;;5074082;28;20205;-73
2023/06/25 08:01:29;;;;;;;6.05;4.90;;;23.30;90.60;;;;;;5074143;28;20557;-73
2023/06/25 08:03:56;;;;;;;6.38;4.60;;;23.50;90.50;;;;;;5073936;28;20205;-73
2023/06/25 08:06:23;;;;;;;5.22;4.72;;;23.60;89.50;;;;;;5074036;28;20657;-74
2023/06/25 08:08:49;;;;;;;4.95;4.50;;;23.80;85.70;;;;;;5074255;28;20274;-74
2023/06/25 08:11:16;;;;;;;6.00;4.75;;;24.10;83.40;;;;;;5074201;28;20232;-74
2023/06/25 08:13:43;;;;;;;5.18;4.43;;;24.30;82.80;;;;;;5074075;28;20926;-74
2023/06/25 08:16:11;;;;;;;9.55;4.50;;;24.40;81.90;;;;;;5073826;28;20246;-73
2023/06/25 08:18:37;;;;;;;7.45;5.30;;;24.50;81.00;;;;;;5073935;28;20201;-75
2023/06/25 08:21:04;;;;;;;12.70;5.15;;;24.50;79.70;;;;;;5073865;28;20201;-76
2023/06/25 08:23:30;;;;;;;6.32;4.70;;;24.60;79.60;;;;;;5073632;28;20599;-74
2023/06/25 08:25:57;;;;;;;5.13;4.72;;;24.90;78.70;;;;;;5073578;28;20197;-75
2023/06/25 08:28:24;;;;;;;5.40;4.65;;;25.00;76.80;;;;;;5073350;28;20197;-74
2023/06/25 08:30:50;;;;;;;5.70;4.13;;;25.20;76.70;;;;;;5073541;28;20286;-73
2023/06/25 08:33:19;;;;;;;5.22;4.72;;;25.30;76.20;;;;;;5073605;28;20197;-73
2023/06/25 08:35:46;;;;;;;5.93;4.63;;;25.50;75.40;;;;;;5073409;28;20235;-75
2023/06/25 08:38:17;;;;;;;5.60;4.57;;;25.50;73.50;;;;;;5073687;28;20288;-75
2023/06/25 08:40:46;;;;;;;4.82;4.20;;;25.60;72.60;;;;;;5073738;28;20204;-75
2023/06/25 08:43:13;;;;;;;5.07;4.57;;;25.90;72.50;;;;;;5073508;28;20197;-74
2023/06/25 08:45:40;;;;;;;6.05;4.53;;;26.00;70.80;;;;;;5073746;28;20193;-74
2023/06/25 08:48:12;;;;;;;5.18;4.57;;;26.20;70.30;;;;;;5073250;28;20733;-73
2023/06/25 08:50:41;;;;;;;4.72;4.15;;;26.40;69.90;;;;;;5073297;28;20217;-73
2023/06/25 08:53:08;;;;;;;4.90;4.45;;;26.50;69.30;;;;;;5073315;28;20201;-74
2023/06/25 08:55:36;;;;;;;7.75;5.00;;;26.60;66.20;;;;;;5073216;28;20228;-72
2023/06/25 08:58:02;;;;;;;4.63;4.22;;;26.70;65.50;;;;;;5073091;28;20201;-73
2023/06/25 09:00:29;;;;;;;6.30;4.38;;;26.90;64.40;;;;;;5073041;28;20250;-72
2023/06/25 09:02:56;;;;;;;4.82;4.32;;;26.80;62.70;;;;;;5073241;28;20338;-74
2023/06/25 09:05:27;;;;;;;5.22;4.72;;;27.00;63.20;;;;;;5073031;28;20196;-73
2023/06/25 09:07:56;;;;;;;4.97;4.57;;;27.30;61.30;;;;;;5072998;28;20196;-74
2023/06/25 09:10:23;;;;;;;4.93;4.43;;;27.20;60.90;;;;;;5072799;28;20201;-74
2023/06/25 09:12:51;;;;;;;5.53;5.03;;;27.10;60.50;;;;;;5072400;28;20287;-74
2023/06/25 09:15:21;;;;;;;5.30;4.82;;;27.00;60.30;;;;;;5072700;28;20193;-74
2023/06/25 09:17:47;;;;;;;5.88;4.53;;;27.60;60.80;;;;;;5072773;28;20287;-74
2023/06/25 09:20:14;;;;;;;5.65;5.00;;;27.70;59.00;;;;;;5073098;28;20243;-74
2023/06/25 09:22:51;;;;;;;5.35;4.85;;;28.00;58.90;;;;;;5072911;28;20246;-74
2023/06/25 09:25:19;;;;;;;5.70;4.72;;;27.90;57.50;;;;;;5073096;28;20197;-73
2023/06/25 09:27:46;;;;;;;5.50;4.97;;;28.10;58.50;;;;;;5072718;28;20201;-74
2023/06/25 09:30:14;;;;;;;4.50;4.10;;;28.10;57.00;;;;;;5070003;28;20233;-74
2023/06/25 09:32:49;;;;;;;4.63;4.22;;;28.40;56.00;;;;;;5070433;28;20239;-74
2023/06/25 09:35:20;;;;;;;5.30;4.78;;;28.60;55.40;;;;;;5070340;28;20200;-73
2023/06/25 09:37:46;;;;;;;4.97;4.40;;;28.80;53.90;;;;;;5070000;28;20205;-73
2023/06/25 09:40:13;;;;;;;5.25;4.38;;;29.00;53.10;;;;;;5069749;28;20205;-75
2023/06/25 09:42:43;;;;;;;5.35;4.85;;;29.20;51.70;;;;;;5070331;28;20263;-73
2023/06/25 09:45:14;;;;;;;5.13;4.25;;;29.60;51.40;;;;;;5070196;28;20211;-73
2023/06/25 09:47:43;;;;;;;5.35;4.38;;;29.60;50.50;;;;;;5070079;28;20669;-73
2023/06/25 09:50:15;;;;;;;4.40;4.10;;;29.80;49.00;;;;;;5070062;28;20196;-74
2023/06/25 09:52:44;;;;;;;5.13;4.60;;;29.70;49.30;;;;;;5069474;28;20275;-74
2023/06/25 09:55:12;;;;;;;6.10;4.63;;;30.10;48.20;;;;;;5069925;28;20229;-73
2023/06/25 09:57:42;;;;;;;4.97;4.55;;;30.00;46.60;;;;;;5070235;28;20201;-73
2023/06/25 10:00:12;;;;;;;5.28;4.78;;;30.10;46.70;;;;;;5069949;28;20246;-74
2023/06/25 10:02:40;;;;;;;5.25;4.60;;;30.50;46.10;;;;;;5071570;28;20197;-74
2023/06/25 10:05:07;;;;;;;6.03;5.35;;;30.50;45.20;;;;;;5071061;28;20201;-71
2023/06/25 10:07:34;;;;;;;6.10;4.40;;;30.70;45.50;;;;;;5067664;28;20661;-72
2023/06/25 10:10:00;;;;;;;4.03;3.72;;;31.00;43.70;;;;;;5072347;28;20258;-70
2023/06/25 10:12:32;;;;;;;4.75;4.32;;;31.10;42.70;;;;;;5071216;28;20623;-70
2023/06/25 10:15:01;;;;;;;4.88;4.40;;;31.20;41.50;;;;;;5072402;28;20193;-70
2023/06/25 10:17:27;;;;;;;5.07;4.68;;;31.40;41.50;;;;;;5072081;28;20258;-70
2023/06/25 10:19:57;;;;;;;4.70;4.30;;;31.00;41.30;;;;;;5071577;28;20197;-70
2023/06/25 10:22:25;;;;;;;6.00;4.63;;;31.60;40.80;;;;;;5072641;28;20196;-70
2023/06/25 10:24:53;;;;;;;5.30;4.22;;;32.00;40.30;;;;;;5072533;28;20653;-70
2023/06/25 10:27:29;;;;;;;4.60;4.28;;;32.20;39.70;;;;;;5072293;28;20250;-69
2023/06/25 10:29:57;;;;;;;5.50;5.00;;;32.00;40.40;;;;;;5072286;28;20287;-69
2023/06/25 10:32:27;;;;;;;5.30;4.90;;;32.30;39.50;;;;;;5072409;28;20235;-69
2023/06/25 10:34:55;;;;;;;7.50;5.80;;;31.90;40.60;;;;;;5072294;28;20717;-70
2023/06/25 10:37:21;;;;;;;8.45;4.55;;;32.40;40.10;;;;;;5072190;28;20604;-71
2023/06/25 10:39:48;;;;;;;5.72;4.75;;;33.00;39.60;;;;;;5072476;28;20545;-70
2023/06/25 10:42:15;;;;;;;4.55;4.18;;;33.30;38.40;;;;;;5072132;28;20587;-70
2023/06/25 10:44:42;;;;;;;5.22;4.75;;;33.00;38.60;;;;;;5071858;28;20267;-70
2023/06/25 10:47:10;;;;;;;5.13;4.60;;;32.90;38.30;;;;;;5072412;28;20203;-69
2023/06/25 10:49:38;;;;;;;5.10;4.60;;;31.40;39.10;;;;;;5072448;28;20192;-69
2023/06/25 10:52:07;;;;;;;4.50;4.10;;;32.30;39.30;;;;;;5075705;28;20369;-69
2023/06/25 10:54:34;;;;;;;4.85;4.45;;;32.60;38.60;;;;;;5075693;28;20229;-69
2023/06/25 10:57:08;;;;;;;5.22;4.60;;;33.20;38.20;;;;;;5075688;28;20247;-70
2023/06/25 10:59:35;;;;;;;4.95;4.55;;;32.60;38.90;;;;;;5075726;28;20713;-70
2023/06/25 11:02:12;;;;;;;4.82;4.53;;;34.10;36.80;;;;;;5075779;28;20200;-70
2023/06/25 11:04:40;;;;;;;4.80;4.40;;;34.90;35.00;;;;;;5075664;28;20294;-70
2023/06/25 11:07:08;;;;;;;4.57;4.28;;;35.70;34.30;;;;;;5075501;28;20200;-70
2023/06/25 11:09:35;;;;;;;5.38;4.63;;;35.40;33.10;;;;;;5075085;28;20192;-70
2023/06/25 11:12:01;;;;;;;4.47;4.18;;;33.30;34.00;;;;;;5075544;28;20220;-69
2023/06/25 11:14:28;;;;;;;6.25;4.80;;;31.90;37.00;;;;;;5075619;28;20249;-70
2023/06/25 11:16:54;;;;;;;4.55;4.25;;;34.30;35.20;;;;;;5075523;28;20196;-70
2023/06/25 11:19:21;;;;;;;4.60;4.20;;;36.30;32.80;;;;;;5075392;28;20648;-70
2023/06/25 11:21:51;;;;;;;4.18;3.88;;;36.90;31.10;;;;;;5075269;28;20257;-71
2023/06/25 11:24:19;;;;;;;4.72;4.32;;;37.80;29.90;;;;;;5075347;28;20209;-70
2023/06/25 11:26:46;;;;;;;4.50;4.13;;;38.20;28.70;;;;;;5075534;28;20203;-70
2023/06/25 11:29:13;;;;;;;4.50;4.10;;;38.90;28.10;;;;;;5075292;28;20200;-70
2023/06/25 11:31:44;;;;;;;4.32;3.80;;;39.20;26.60;;;;;;5075064;28;20278;-70
2023/06/25 11:34:20;;;;;;;4.43;4.10;;;38.40;26.80;;;;;;5075015;28;20648;-70
2023/06/25 11:36:47;;;;;;;4.28;3.97;;;39.50;25.70;;;;;;5074970;28;20211;-70
2023/06/25 11:39:16;;;;;;;4.50;4.10;;;39.50;25.40;;;;;;5075105;28;20196;-70
2023/06/25 11:41:43;;;;;;;4.20;3.90;;;39.70;24.90;;;;;;5075047;28;20207;-71
2023/06/25 11:44:16;;;;;;;4.40;4.10;;;40.10;24.10;;;;;;5074937;28;20204;-71
2023/06/25 11:46:43;;;;;;;4.13;3.83;;;40.20;23.30;;;;;;5074924;28;20193;-71
2023/06/25 11:49:10;;;;;;;4.50;4.10;;;40.40;22.90;;;;;;5074720;28;20250;-71
2023/06/25 11:51:36;;;;;;;4.50;4.20;;;40.60;22.40;;;;;;5074536;28;20557;-71
2023/06/25 11:54:03;;;;;;;4.22;3.88;;;40.90;22.00;;;;;;5074640;28;20231;-71
2023/06/25 11:56:31;;;;;;;4.78;3.85;;;41.10;21.60;;;;;;5074723;28;20257;-71
2023/06/25 11:58:57;;;;;;;4.28;3.97;;;41.40;21.60;;;;;;5074451;28;20657;-71
2023/06/25 12:01:25;;;;;;;4.28;3.97;;;41.90;20.90;;;;;;5073447;28;20193;-71
2023/06/25 12:03:52;;;;;;;5.53;4.07;;;42.20;19.90;;;;;;5074415;28;20223;-70
2023/06/25 12:06:19;;;;;;;4.57;4.18;;;42.10;19.30;;;;;;5074625;28;20193;-71
2023/06/25 12:08:45;;;;;;;5.40;3.97;;;40.70;19.60;;;;;;5074484;28;20200;-71
2023/06/25 12:11:12;;;;;;;4.28;3.97;;;40.40;20.20;;;;;;5074323;28;20656;-71
2023/06/25 12:13:40;;;;;;;4.47;4.15;;;40.70;20.20;;;;;;5074297;28;20224;-71
2023/06/25 12:16:06;;;;;;;5.38;4.13;;;40.10;19.10;;;;;;5074228;28;20197;-70
2023/06/25 12:18:33;;;;;;;4.55;4.15;;;38.20;20.50;;;;;;5074114;28;20199;-71
2023/06/25 12:21:00;;;;;;;4.30;4.00;;;39.00;20.70;;;;;;5074153;28;20725;-71
2023/06/25 12:23:26;;;;;;;4.20;3.90;;;38.10;19.60;;;;;;5074237;28;20204;-71
2023/06/25 12:25:53;;;;;;;4.43;4.03;;;39.80;18.90;;;;;;5074205;28;20603;-71
2023/06/25 12:28:19;;;;;;;5.10;4.00;;;39.20;19.10;;;;;;5074110;28;20192;-71
2023/06/25 12:30:47;;;;;;;4.57;4.18;;;40.50;19.40;;;;;;5073808;28;20204;-71
2023/06/25 12:33:14;;;;;;;4.65;4.25;;;41.50;19.20;;;;;;5073978;28;20273;-71
2023/06/25 12:35:41;;;;;;;4.45;4.05;;;40.40;18.90;;;;;;5073944;28;20197;-71
2023/06/25 12:38:07;;;;;;;4.43;4.13;;;39.00;20.30;;;;;;5073864;28;20192;-71
2023/06/25 12:40:34;;;;;;;4.45;4.05;;;40.40;19.30;;;;;;5073818;28;20204;-71
2023/06/25 12:43:01;;;;;;;4.13;3.83;;;41.80;18.50;;;;;;5073692;28;20200;-71